Terminal Aerodrome Forecast
Issued by NWS Atlanta, GA

Home | Current Version | Previous Version | Text Only | Print | Product List | Glossary On
Versions: 1 2 3 4 5 6 7 8 9 10 11 12 13 14 15 16 17 18 19 20 21 22 23 24 25 26 27 28 29 30 31 32 33
000
FTUS42 KFFC 102300 RRA
TAFAHN
TAF
KAHN 102344Z 1100/1124 VRB03KT P6SM FEW040 SCT090 BKN250
     FM110400 00000KT 5SM BR SCT007
     FM111500 06004KT 6SM HZ SCT025
     FM111800 09005KT P6SM SCT045 PROB30 1119/1123 TSRA BKN040CB=

USA.gov is the U.S. government's official web portal to all federal, state and local government web resources and services.